Time;durP1;ratioP1;P1;durP2;ratioP2;P2;SDS_P1;SDS_P2;PMS_P1;PMS_P2;Temp;Humidity;BMP_temperature;BMP_pressure;BME280_temperature;BME280_humidity;BME280_pressure;Samples;Min_cycle;Max_cycle;Signal;HPM_P1;HPM_P2
2024/03/21 00:00:51;;;;;;;;;;;19.30;51.80;;;18.63;48.14;99943.03;10328570;28;1906;-70
2024/03/21 00:05:47;;;;;;;;;;;19.20;51.80;;;18.63;47.89;99950.94;10328502;28;960;-70
2024/03/21 00:10:42;;;;;;;;;;;19.20;51.80;;;18.61;47.85;99955.44;10327951;28;834;-70
2024/03/21 00:15:37;;;;;;;;;;;19.20;51.80;;;18.60;48.04;99938.72;10326870;28;905;-70
2024/03/21 00:20:33;;;;;;;;;;;19.20;51.80;;;18.59;47.92;99942.28;10326633;28;1902;-70
2024/03/21 00:25:29;;;;;;;;;;;19.20;51.90;;;18.58;48.07;99937.09;10327131;28;806;-70
2024/03/21 00:30:24;;;;;;;;;;;19.20;51.90;;;18.57;47.92;99922.16;10327678;28;1146;-69
2024/03/21 00:35:20;;;;;;;;;;;19.10;51.80;;;18.54;48.07;99928.41;10326707;28;790;-70
2024/03/21 00:40:15;;;;;;;;;;;19.10;51.80;;;18.53;48.01;99925.88;10326415;28;1906;-70
2024/03/21 00:45:11;;;;;;;;;;;19.10;51.80;;;18.51;47.74;99922.44;10325817;28;941;-70
2024/03/21 00:50:06;;;;;;;;;;;19.10;51.80;;;18.51;47.99;99928.56;10326787;28;767;-69
2024/03/21 00:55:01;;;;;;;;;;;19.10;51.90;;;18.49;48.03;99930.41;10326083;28;854;-69
2024/03/21 00:59:57;;;;;;;;;;;19.10;51.90;;;18.47;47.83;99924.34;10325491;28;1906;-70
2024/03/21 01:04:52;;;;;;;;;;;19.10;51.90;;;18.47;47.99;99919.06;10325855;28;771;-70
2024/03/21 01:09:48;;;;;;;;;;;19.00;51.80;;;18.45;48.02;99920.06;10326046;28;910;-70
2024/03/21 01:14:43;;;;;;;;;;;19.00;51.80;;;18.44;48.06;99918.34;10325700;28;917;-70
2024/03/21 01:19:39;;;;;;;;;;;19.00;51.90;;;18.43;48.04;99911.34;10325455;28;1957;-70
2024/03/21 01:24:34;;;;;;;;;;;19.00;51.90;;;18.41;48.10;99924.59;10325573;28;901;-69
2024/03/21 01:29:30;;;;;;;;;;;19.00;51.90;;;18.40;47.92;99930.81;10325443;28;1081;-69
2024/03/21 01:34:25;;;;;;;;;;;18.90;51.80;;;18.39;48.00;99934.34;10325365;28;822;-70
2024/03/21 01:39:20;;;;;;;;;;;18.90;51.90;;;18.37;47.97;99926.53;10325681;28;1910;-70
2024/03/21 01:44:16;;;;;;;;;;;18.90;51.90;;;18.36;48.13;99921.31;10325211;28;827;-69
2024/03/21 01:49:11;;;;;;;;;;;18.90;51.90;;;18.34;47.91;99924.03;10324973;28;879;-70
2024/03/21 01:54:07;;;;;;;;;;;18.90;51.90;;;18.34;48.20;99925.81;10324825;28;771;-69
2024/03/21 01:59:03;;;;;;;;;;;18.90;52.00;;;18.33;47.90;99929.34;10325232;28;1956;-70
2024/03/21 02:03:59;;;;;;;;;;;18.90;51.90;;;18.31;47.98;99926.78;10325491;28;893;-70
2024/03/21 02:08:54;;;;;;;;;;;18.90;52.00;;;18.29;48.02;99926.00;10325119;28;856;-70
2024/03/21 02:13:50;;;;;;;;;;;18.80;51.90;;;18.29;48.19;99923.34;10325193;28;893;-70
2024/03/21 02:18:45;;;;;;;;;;;18.80;51.90;;;18.27;47.89;99914.66;10327106;28;1906;-70
2024/03/21 02:23:41;;;;;;;;;;;18.80;52.00;;;18.26;47.90;99928.78;10332502;28;857;-70
2024/03/21 02:28:36;;;;;;;;;;;18.80;51.90;;;18.25;48.06;99931.47;10332766;28;1216;-69
2024/03/21 02:33:32;;;;;;;;;;;18.80;51.90;;;18.24;48.04;99924.47;10332292;28;842;-70
2024/03/21 02:38:27;;;;;;;;;;;18.80;52.00;;;18.22;47.99;99929.81;10331260;28;1906;-70
2024/03/21 02:43:23;;;;;;;;;;;18.80;52.00;;;18.22;48.08;99940.38;10331829;28;869;-70
2024/03/21 02:48:18;;;;;;;;;;;18.80;52.00;;;18.21;48.00;99956.25;10330941;28;896;-70
2024/03/21 02:53:13;;;;;;;;;;;18.70;51.90;;;18.18;48.10;99960.75;10331076;28;891;-70
2024/03/21 02:58:09;;;;;;;;;;;18.70;51.90;;;18.17;48.09;99955.53;10330516;28;1965;-70
2024/03/21 03:03:07;;;;;;;;;;;18.70;51.90;;;18.16;48.04;99962.59;10331105;28;882;-69
2024/03/21 03:08:02;;;;;;;;;;;18.70;51.90;;;18.16;48.13;99952.03;10330845;28;865;-70
2024/03/21 03:12:57;;;;;;;;;;;18.70;51.70;;;18.16;47.90;99944.13;10330513;28;869;-70
2024/03/21 03:17:53;;;;;;;;;;;18.80;51.70;;;18.16;47.93;99943.25;10329834;28;1905;-70
2024/03/21 03:22:48;;;;;;;;;;;18.80;51.60;;;18.15;47.91;99942.38;10329790;28;881;-70
2024/03/21 03:27:44;;;;;;;;;;;18.80;51.70;;;18.14;47.91;99938.03;10329360;28;1038;-69
2024/03/21 03:32:47;;;;;;;;;;;18.70;51.70;;;18.16;47.90;99956.47;10328843;28;1273;-70
2024/03/21 03:37:42;;;;;;;;;;;18.70;51.70;;;18.16;47.97;99972.28;10329048;28;1967;-69
2024/03/21 03:42:38;;;;;;;;;;;18.80;51.70;;;18.16;48.05;99969.66;10329600;28;862;-70
2024/03/21 03:47:33;;;;;;;;;;;18.80;51.70;;;18.17;47.91;99981.91;10328701;28;781;-69
2024/03/21 03:52:28;;;;;;;;;;;18.80;51.70;;;18.18;48.10;99986.25;10329217;28;818;-70
2024/03/21 03:57:25;;;;;;;;;;;18.80;51.60;;;18.17;48.00;99972.22;10329134;28;910;-70
2024/03/21 04:02:21;;;;;;;;;;;18.80;51.60;;;18.19;47.91;99990.63;10328704;28;1901;-70
2024/03/21 04:07:16;;;;;;;;;;;18.80;51.60;;;18.20;47.90;99986.19;10328679;28;818;-70
2024/03/21 04:12:12;;;;;;;;;;;18.80;51.60;;;18.18;47.98;99984.50;10328190;28;914;-70
2024/03/21 04:17:08;;;;;;;;;;;18.90;51.50;;;18.19;47.88;99974.78;10327424;28;891;-70
2024/03/21 04:22:03;;;;;;;;;;;18.90;51.50;;;18.20;47.80;99973.84;10327186;28;1898;-70
2024/03/21 04:26:59;;;;;;;;;;;18.90;51.40;;;18.20;47.82;99978.28;10327086;28;771;-70
2024/03/21 04:31:54;;;;;;;;;;;18.90;51.50;;;18.20;47.94;99988.84;10308885;28;2177;-70
2024/03/21 04:36:49;;;;;;;;;;;18.90;51.50;;;18.21;47.81;100001.09;10327285;28;921;-70
2024/03/21 04:41:45;;;;;;;;;;;18.90;51.40;;;18.20;47.83;100007.31;10325354;28;1985;-70
2024/03/21 04:46:40;;;;;;;;;;;18.90;51.40;;;18.21;47.76;100017.81;10325803;28;907;-70
2024/03/21 04:51:36;;;;;;;;;;;18.90;51.40;;;18.21;47.83;100046.84;10326868;28;988;-70
2024/03/21 04:56:31;;;;;;;;;;;18.90;51.40;;;18.20;47.86;100034.53;10326301;28;814;-70
2024/03/21 05:01:27;;;;;;;;;;;18.90;51.40;;;18.23;47.69;100030.91;10326024;28;1967;-69
2024/03/21 05:06:22;;;;;;;;;;;18.90;51.40;;;18.24;47.84;100035.31;10326986;28;829;-69
2024/03/21 05:11:18;;;;;;;;;;;19.00;51.40;;;18.26;47.92;100043.97;10325745;28;825;-70
2024/03/21 05:16:13;;;;;;;;;;;19.00;51.40;;;18.26;47.96;100042.22;10325577;28;855;-70
2024/03/21 05:21:08;;;;;;;;;;;19.00;51.40;;;18.28;47.84;100063.25;10325689;28;1902;-70
2024/03/21 05:26:04;;;;;;;;;;;19.00;51.30;;;18.30;47.90;100056.16;10324743;28;956;-69
2024/03/21 05:30:59;;;;;;;;;;;19.00;51.30;;;18.31;47.70;100063.13;10325786;28;1073;-69
2024/03/21 05:35:55;;;;;;;;;;;19.10;51.30;;;18.33;47.72;100077.13;10325231;28;865;-72
2024/03/21 05:40:50;;;;;;;;;;;19.10;51.30;;;18.35;47.72;100084.06;10324923;28;1969;-68
2024/03/21 05:45:46;;;;;;;;;;;19.10;51.30;;;18.35;47.91;100084.06;10325034;28;868;-69
2024/03/21 05:50:43;;;;;;;;;;;19.20;51.40;;;18.37;47.87;100105.97;10324881;28;907;-73
2024/03/21 05:55:39;;;;;;;;;;;19.10;51.30;;;18.39;48.11;100113.81;10331378;28;856;-72
2024/03/21 06:00:34;;;;;;;;;;;19.10;51.40;;;18.38;48.02;100118.25;10332787;28;1906;-71
2024/03/21 06:05:29;;;;;;;;;;;19.20;51.40;;;18.41;48.03;100127.81;10333032;28;788;-71
2024/03/21 06:10:25;;;;;;;;;;;19.10;51.40;;;18.43;48.03;100130.41;10313787;28;1120;-71
2024/03/21 06:15:20;;;;;;;;;;;19.20;51.40;;;18.43;47.86;100136.53;10331941;28;822;-73
2024/03/21 06:20:16;;;;;;;;;;;19.20;51.40;;;18.43;48.18;100128.63;10331949;28;1957;-72
2024/03/21 06:25:11;;;;;;;;;;;19.20;51.50;;;18.44;48.14;100132.97;10332457;28;815;-72
2024/03/21 06:30:07;;;;;;;;;;;19.10;51.50;;;18.45;47.86;100133.84;10331819;28;1158;-72
2024/03/21 06:35:02;;;;;;;;;;;19.20;51.50;;;18.46;47.95;100152.25;10332687;28;885;-74
2024/03/21 06:40:04;;;;;;;;;;;19.20;51.50;;;18.46;47.89;100146.97;10331219;28;1965;-72
2024/03/21 06:44:59;;;;;;;;;;;19.20;51.50;;;18.46;47.98;100167.25;10331031;28;906;-70
2024/03/21 06:49:56;;;;;;;;;;;19.20;51.50;;;18.45;48.03;100160.25;10331245;28;857;-70
2024/03/21 06:54:51;;;;;;;;;;;19.10;51.50;;;18.44;48.01;100169.94;10330795;28;902;-70
2024/03/21 06:59:47;;;;;;;;;;;19.10;51.60;;;18.43;48.10;100176.13;10331218;28;1906;-72
2024/03/21 07:04:42;;;;;;;;;;;19.10;51.60;;;18.43;48.04;100165.56;10329864;28;949;-72
2024/03/21 07:09:38;;;;;;;;;;;19.10;51.60;;;18.42;48.04;100169.16;10330272;28;904;-72
2024/03/21 07:14:33;;;;;;;;;;;19.10;51.50;;;18.42;47.99;100177.06;10330671;28;898;-72
2024/03/21 07:19:35;;;;;;;;;;;19.10;51.60;;;18.42;47.86;100190.25;10329757;28;1906;-73
2024/03/21 07:24:30;;;;;;;;;;;19.10;51.60;;;18.42;47.97;100187.63;10329709;28;771;-73
2024/03/21 07:29:26;;;;;;;;;;;19.10;51.60;;;18.43;48.00;100202.53;10329439;28;1365;-75
2024/03/21 07:34:21;;;;;;;;;;;19.10;51.70;;;18.43;48.09;100212.25;10329374;28;895;-75
2024/03/21 07:39:20;;;;;;;;;;;19.10;51.80;;;18.42;48.03;100214.03;10329045;28;1914;-78
2024/03/21 07:44:15;;;;;;;;;;;19.10;51.70;;;18.43;48.11;100220.16;10328850;28;872;-76
2024/03/21 07:49:11;;;;;;;;;;;19.10;51.70;;;18.43;48.07;100230.72;10329376;28;884;-75
2024/03/21 07:54:06;;;;;;;;;;;19.10;51.70;;;18.43;47.75;100238.63;10328526;28;814;-76
2024/03/21 07:59:01;;;;;;;;;;;19.10;51.60;;;18.44;48.10;100250.91;10328956;28;1902;-75
2024/03/21 08:03:57;;;;;;;;;;;19.10;51.60;;;18.43;47.87;100255.31;10328649;28;819;-79
2024/03/21 08:08:52;;;;;;;;;;;19.10;51.40;;;18.44;47.74;100262.31;10328448;28;826;-75
2024/03/21 08:13:48;;;;;;;;;;;19.10;51.40;;;18.44;47.83;100269.38;10327731;28;888;-76
2024/03/21 08:18:43;;;;;;;;;;;19.10;51.40;;;18.44;47.63;100279.94;10326536;28;1902;-82
2024/03/21 08:23:38;;;;;;;;;;;19.10;51.40;;;18.44;47.75;100272.00;10327392;28;771;-73
2024/03/21 08:28:34;;;;;;;;;;;19.10;51.30;;;18.44;47.55;100279.94;10327550;28;1098;-74
2024/03/21 08:33:29;;;;;;;;;;;19.10;51.50;;;18.42;47.69;100287.94;10326982;28;790;-75
2024/03/21 08:38:25;;;;;;;;;;;19.10;51.20;;;18.43;47.83;100300.19;10326032;28;1906;-77
2024/03/21 08:43:20;;;;;;;;;;;19.10;51.50;;;18.43;47.69;100307.25;10326607;28;806;-76
2024/03/21 08:48:15;;;;;;;;;;;19.00;51.40;;;18.43;47.76;100315.19;10326439;28;853;-75
2024/03/21 08:53:11;;;;;;;;;;;19.00;51.40;;;18.42;47.89;100324.88;10326246;28;770;-75
2024/03/21 08:58:06;;;;;;;;;;;19.00;51.40;;;18.44;47.79;100336.22;10326501;28;1953;-75
2024/03/21 09:03:02;;;;;;;;;;;19.10;51.40;;;18.45;47.55;100337.09;10326573;28;943;-75
2024/03/21 09:07:57;;;;;;;;;;;19.10;51.10;;;18.44;47.79;100344.13;10325867;28;850;-75
2024/03/21 09:12:52;;;;;;;;;;;19.10;51.30;;;18.44;47.59;100348.56;10325785;28;826;-75
2024/03/21 09:17:48;;;;;;;;;;;19.10;51.20;;;18.44;47.56;100351.19;10326138;28;1899;-75
2024/03/21 09:22:44;;;;;;;;;;;19.10;51.20;;;18.44;47.69;100344.13;10325521;28;810;-75
2024/03/21 09:27:39;;;;;;;;;;;19.10;51.30;;;18.45;47.64;100347.66;10326054;28;1058;-75
2024/03/21 09:32:34;;;;;;;;;;;19.10;51.10;;;18.44;47.37;100354.69;10326079;28;1440;-75
2024/03/21 09:37:30;;;;;;;;;;;19.10;51.00;;;18.45;47.65;100363.50;10325842;28;861;-75
2024/03/21 09:42:25;;;;;;;;;;;19.10;51.00;;;18.45;47.39;100369.63;10325064;28;1938;-75
2024/03/21 09:47:23;;;;;;;;;;;19.10;51.10;;;18.45;47.65;100377.56;10324984;28;861;-75
2024/03/21 09:52:18;;;;;;;;;;;19.10;51.10;;;18.44;47.67;100381.09;10324898;28;895;-75
2024/03/21 09:57:14;;;;;;;;;;;19.10;51.20;;;18.46;47.54;100391.59;10324757;28;888;-75
2024/03/21 10:02:12;;;;;;;;;;;19.10;51.10;;;18.46;47.54;100395.09;10324597;28;1914;-75
2024/03/21 10:07:07;;;;;;;;;;;19.20;51.90;;;18.46;47.56;100403.03;10324574;28;834;-75
2024/03/21 10:12:03;;;;;;;;;;;19.20;51.20;;;18.47;47.44;100406.50;10323965;28;940;-75
2024/03/21 10:16:59;;;;;;;;;;;19.20;51.20;;;18.49;47.54;100413.47;10325177;28;869;-75
2024/03/21 10:21:54;;;;;;;;;;;19.10;50.90;;;18.49;47.61;100405.53;10324240;28;1910;-75
2024/03/21 10:26:50;;;;;;;;;;;19.20;51.80;;;18.49;47.39;100416.09;10324272;28;945;-75
2024/03/21 10:31:45;;;;;;;;;;;19.10;55.50;;;18.51;47.55;100416.06;10324175;28;1566;-75
2024/03/21 10:36:41;;;;;;;;;;;19.20;52.70;;;18.53;47.36;100428.28;10324057;28;1000;-75
2024/03/21 10:41:36;;;;;;;;;;;19.20;51.20;;;18.54;47.39;100435.28;10328328;28;1922;-75
2024/03/21 10:46:31;;;;;;;;;;;19.20;53.00;;;18.55;47.32;100444.94;10331768;28;790;-74
2024/03/21 10:51:27;;;;;;;;;;;19.20;54.60;;;18.55;47.31;100463.44;10331012;28;825;-75
2024/03/21 10:56:22;;;;;;;;;;;19.20;52.10;;;18.59;47.21;100461.53;10331473;28;917;-75
2024/03/21 11:01:18;;;;;;;;;;;19.20;50.80;;;18.58;47.26;100465.09;10330593;28;1914;-75
2024/03/21 11:06:13;;;;;;;;;;;19.20;53.80;;;18.62;47.27;100456.13;10331366;28;858;-75
2024/03/21 11:11:09;;;;;;;;;;;19.20;59.10;;;18.59;47.19;100470.31;10330203;28;1006;-75
2024/03/21 11:16:04;;;;;;;;;;;19.00;57.00;;;18.61;47.30;100472.91;10330062;28;830;-74
2024/03/21 11:21:00;;;;;;;;;;;18.40;52.20;;;18.60;47.24;100476.44;10329368;28;1910;-75
2024/03/21 11:25:55;;;;;;;;;;;20.00;56.20;;;18.60;47.05;100477.34;10330405;28;957;-75
2024/03/21 11:30:51;;;;;;;;;;;19.30;59.30;;;18.60;47.13;100482.63;10329717;28;1304;-75
2024/03/21 11:35:48;;;;;;;;;;;19.40;58.80;;;18.62;47.29;100487.81;10329761;28;1246;-75
2024/03/21 11:40:43;;;;;;;;;;;19.30;58.00;;;18.66;47.08;100491.25;10329094;28;1906;-75
2024/03/21 11:45:39;;;;;;;;;;;19.30;57.90;;;18.62;47.09;100491.31;10328992;28;909;-75
2024/03/21 11:50:34;;;;;;;;;;;19.30;55.70;;;18.64;47.18;100500.97;10329242;28;805;-75
2024/03/21 11:55:30;;;;;;;;;;;19.30;55.70;;;18.64;47.15;100512.41;10329138;28;897;-75
2024/03/21 12:00:25;;;;;;;;;;;19.30;55.50;;;18.65;47.02;100516.75;10327749;28;1906;-75
2024/03/21 12:05:21;;;;;;;;;;;19.30;55.00;;;18.65;47.02;100513.25;10329146;28;857;-74
2024/03/21 12:10:16;;;;;;;;;;;19.30;54.40;;;18.66;47.06;100502.66;10328125;28;905;-75
2024/03/21 12:15:13;;;;;;;;;;;19.30;54.40;;;18.68;47.05;100507.88;10327708;28;950;-75
2024/03/21 12:20:08;;;;;;;;;;;19.30;54.20;;;18.71;47.07;100510.44;10327360;28;1902;-75
2024/03/21 12:25:05;;;;;;;;;;;19.30;54.40;;;18.71;47.04;100521.00;10327884;28;1536;-75
2024/03/21 12:30:01;;;;;;;;;;;19.30;54.70;;;18.69;46.97;100528.09;10327106;28;1165;-74
2024/03/21 12:34:56;;;;;;;;;;;19.30;56.60;;;18.72;46.96;100520.91;10327729;28;865;-75
2024/03/21 12:39:52;;;;;;;;;;;19.30;55.90;;;18.74;46.79;100526.16;10327681;28;1914;-75
2024/03/21 12:44:48;;;;;;;;;;;19.40;52.90;;;18.78;46.99;100519.88;10327292;28;789;-75
2024/03/21 12:49:44;;;;;;;;;;;19.40;50.60;;;18.78;46.84;100509.31;10327567;28;871;-75
2024/03/21 12:54:39;;;;;;;;;;;19.40;51.10;;;18.80;46.96;100515.41;10326716;28;925;-77
2024/03/21 12:59:35;;;;;;;;;;;19.40;50.90;;;18.82;46.96;100514.44;10326115;28;1963;-77
2024/03/21 13:04:31;;;;;;;;;;;19.50;51.20;;;18.82;46.84;100505.66;10325518;28;818;-78
2024/03/21 13:09:26;;;;;;;;;;;19.50;55.40;;;18.84;46.94;100506.47;10326000;28;792;-75
2024/03/21 13:14:22;;;;;;;;;;;19.50;52.10;;;18.92;46.64;100511.47;10326246;28;842;-75
2024/03/21 13:19:17;;;;;;;;;;;19.50;51.60;;;18.96;46.72;100507.78;10326160;28;1909;-75
2024/03/21 13:24:12;;;;;;;;;;;19.60;51.60;;;18.99;46.86;100512.97;10325649;28;929;-76
2024/03/21 13:29:08;;;;;;;;;;;19.70;51.50;;;19.01;46.71;100511.97;10325350;28;1077;-75
2024/03/21 13:34:04;;;;;;;;;;;19.70;51.00;;;19.04;46.83;100511.00;10325334;28;893;-75
2024/03/21 13:39:02;;;;;;;;;;;19.70;50.50;;;19.07;46.75;100515.31;10325139;28;1965;-75
2024/03/21 13:43:57;;;;;;;;;;;19.70;50.70;;;19.12;46.61;100510.72;10325720;28;885;-75
2024/03/21 13:48:53;;;;;;;;;;;19.80;50.40;;;19.15;46.53;100507.97;10325691;28;854;-88
2024/03/21 13:53:48;;;;;;;;;;;19.80;50.40;;;19.18;46.41;100500.81;10324954;28;801;-75
2024/03/21 13:58:44;;;;;;;;;;;19.90;50.50;;;19.26;46.58;100508.47;10324729;28;1906;-75
2024/03/21 14:03:39;;;;;;;;;;;19.90;50.50;;;19.30;46.48;100499.47;10325061;28;1005;-75
2024/03/21 14:08:34;;;;;;;;;;;20.00;50.50;;;19.30;46.57;100499.47;10323710;28;949;-76
2024/03/21 14:13:30;;;;;;;;;;;20.00;50.30;;;19.31;46.53;100497.69;10325407;28;864;-75
2024/03/21 14:18:25;;;;;;;;;;;20.00;50.30;;;19.36;46.42;100493.97;10331310;28;1949;-77
2024/03/21 14:23:21;;;;;;;;;;;;;;;19.39;46.49;100490.38;10332435;28;801;-75
2024/03/21 14:28:17;;;;;;;;;;;;;;;19.31;46.51;100480.06;10332207;28;947;-74
2024/03/21 14:33:13;;;;;;;;;;;;;;;19.37;46.53;100484.25;10331249;28;1298;-75
2024/03/21 14:38:09;;;;;;;;;;;;;;;19.34;46.44;100485.25;10331776;28;1902;-74
2024/03/21 14:43:05;;;;;;;;;;;;;;;19.32;46.60;100483.56;10331669;28;883;-75
2024/03/21 14:48:00;;;;;;;;;;;;;;;19.36;46.58;100478.13;10330318;28;979;-75
2024/03/21 14:52:59;;;;;;;;;;;;;;;19.41;46.40;100477.91;10331282;28;901;-75
2024/03/21 14:57:55;;;;;;;;;;;;;;;19.41;46.32;100478.81;10329974;28;826;-75
2024/03/21 15:02:51;;;;;;;;;;;;;;;19.37;46.40;100471.91;10329689;28;1897;-75
2024/03/21 15:07:50;;;;;;;;;;;;;;;19.35;46.63;100470.25;10330711;28;858;-75
2024/03/21 15:12:45;;;;;;;;;;;;;;;19.31;46.55;100466.84;10329415;28;980;-75
2024/03/21 15:17:42;;;;;;;;;;;;;;;19.28;46.43;100469.59;10330501;28;802;-74
2024/03/21 15:22:37;;;;;;;;;;;;;;;19.27;46.60;100471.38;10329877;28;1965;-76
2024/03/21 15:27:33;;;;;;;;;;;;;;;19.23;46.44;100464.50;10328977;28;996;-75
2024/03/21 15:32:29;;;;;;;;;;;;;;;19.21;46.44;100470.78;10328555;28;1302;-76
2024/03/21 15:37:25;;;;;;;;;;;;;;;19.17;46.42;100471.78;10329055;28;807;-73
2024/03/21 15:42:21;;;;;;;;;;;;;;;19.16;46.60;100481.50;10328782;28;1918;-73
2024/03/21 15:47:17;;;;;;;;;;;;;;;19.15;46.64;100484.19;10328632;28;965;-73
2024/03/21 15:52:13;;;;;;;;;;;;;;;19.13;46.92;100481.63;10328478;28;880;-73
2024/03/21 15:57:09;;;;;;;;;;;;;;;19.11;47.00;100477.31;10328459;28;834;-72
2024/03/21 16:02:07;;;;;;;;;;;;;;;19.10;46.96;100476.47;10328553;28;1886;-72
2024/03/21 16:07:02;;;;;;;;;;;;;;;19.09;46.84;100472.06;10328360;28;930;-72
2024/03/21 16:11:58;;;;;;;;;;;;;;;19.08;46.91;100467.72;10328255;28;974;-72
2024/03/21 16:16:54;;;;;;;;;;;;;;;19.09;47.06;100468.56;10326879;28;929;-72
2024/03/21 16:21:50;;;;;;;;;;;;;;;19.08;47.12;100466.88;10327208;28;1889;-72
2024/03/21 16:26:46;;;;;;;;;;;;;;;19.07;47.19;100468.63;10327109;28;778;-72
2024/03/21 16:31:42;;;;;;;;;;;;;;;19.07;47.17;100470.41;10327934;28;1154;-72
2024/03/21 16:36:38;;;;;;;;;;;;;;;19.05;47.30;100471.34;10325958;28;882;-72
2024/03/21 16:41:34;;;;;;;;;;;;;;;19.05;47.29;100473.13;10326425;28;1977;-73
2024/03/21 16:46:30;;;;;;;;;;;;;;;19.03;47.44;100467.03;10326313;28;911;-74
2024/03/21 16:51:26;;;;;;;;;;;;;;;19.02;47.43;100473.22;10326165;28;834;-72
2024/03/21 16:56:21;;;;;;;;;;;;;;;19.01;47.44;100467.06;10325953;28;778;-72
2024/03/21 17:01:17;;;;;;;;;;;;;;;19.01;47.37;100468.84;10325218;28;1897;-73
2024/03/21 17:06:13;;;;;;;;;;;;;;;19.01;47.45;100455.66;10325809;28;864;-73
2024/03/21 17:11:09;;;;;;;;;;;;;;;19.01;47.53;100467.06;10325027;28;942;-72
2024/03/21 17:16:05;;;;;;;;;;;;;;;19.01;47.51;100467.06;10325485;28;868;-73
2024/03/21 17:21:03;;;;;;;;;;;;;;;19.01;47.47;100453.00;10325861;28;1914;-72
2024/03/21 17:25:59;;;;;;;;;;;;;;;19.01;47.70;100460.94;10324865;28;998;-73
2024/03/21 17:30:55;;;;;;;;;;;;;;;19.00;47.50;100462.72;10325406;28;1321;-73
2024/03/21 17:35:53;;;;;;;;;;;;;;;19.00;47.59;100468.00;10325069;28;712;-73
2024/03/21 17:40:50;;;;;;;;;;;;;;;19.00;47.58;100465.34;10324857;28;1927;-73
2024/03/21 17:45:45;;;;;;;;;;;;;;;19.01;47.68;100460.94;10325696;28;934;-73
2024/03/21 17:50:46;;;;;;;;;;;;;;;19.01;47.53;100460.94;10330527;28;854;-73
2024/03/21 17:55:42;;;;;;;;;;;;;;;19.00;47.61;100453.94;10333516;28;1586;-73
2024/03/21 18:00:37;;;;;;;;;;;;;;;19.01;47.63;100445.94;10332472;28;1902;-73
2024/03/21 18:05:35;;;;;;;;;;;;;;;19.02;47.58;100452.06;10332699;28;774;-73
2024/03/21 18:10:34;;;;;;;;;;;;;;;19.01;47.47;100453.84;10332403;28;988;-73
2024/03/21 18:15:31;;;;;;;;;;;;;;;19.02;47.54;100462.66;10333029;28;849;-73
2024/03/21 18:20:27;;;;;;;;;;;;;;;19.03;47.56;100467.88;10332526;28;1970;-72
2024/03/21 18:25:23;;;;;;;;;;;;;;;19.02;47.54;100460.00;10332404;28;894;-72
2024/03/21 18:30:19;;;;;;;;;;;;;;;19.02;47.48;100458.25;10331181;28;1294;-72
2024/03/21 18:35:14;;;;;;;;;;;;;;;19.03;47.49;100453.81;10332012;28;881;-73
2024/03/21 18:40:11;;;;;;;;;;;;;;;19.04;47.54;100464.31;10331212;28;1967;-72
2024/03/21 18:45:07;;;;;;;;;;;;;;;19.05;47.61;100450.19;10331638;28;806;-72
2024/03/21 18:50:03;;;;;;;;;;;;;;;19.05;47.60;100452.84;10330859;28;898;-72
2024/03/21 18:54:59;;;;;;;;;;;;;;;19.05;47.43;100463.41;10331313;28;873;-72
2024/03/21 18:59:55;;;;;;;;;;;;;;;19.07;47.46;100470.41;10329096;28;1898;-72
2024/03/21 19:04:51;;;;;;;;;;;;;;;19.07;47.55;100451.91;10330933;28;897;-72
2024/03/21 19:09:47;;;;;;;;;;;;;;;19.07;47.57;100449.25;10330153;28;909;-72
2024/03/21 19:14:43;;;;;;;;;;;;;;;19.07;47.62;100460.69;10329966;28;931;-72
2024/03/21 19:19:40;;;;;;;;;;;;;;;19.09;47.38;100458.88;10329267;28;1902;-72
2024/03/21 19:24:39;;;;;;;;;;;;;;;19.10;47.41;100465.00;10330200;28;839;-72
2024/03/21 19:29:35;;;;;;;;;;;;;;;19.10;47.58;100459.72;10328813;28;1230;-72
2024/03/21 19:34:33;;;;;;;;;;;;;;;19.10;47.53;100468.53;10329796;28;868;-72
2024/03/21 19:39:29;;;;;;;;;;;;;;;19.10;47.52;100476.47;10329746;28;1963;-72
2024/03/21 19:44:25;;;;;;;;;;;;;;;19.11;47.44;100474.66;10329402;28;798;-72
2024/03/21 19:49:21;;;;;;;;;;;;;;;19.11;47.44;100472.03;10328626;28;774;-72
2024/03/21 19:54:17;;;;;;;;;;;;;;;19.12;47.47;100469.31;10329188;28;847;-72
2024/03/21 19:59:13;;;;;;;;;;;;;;;19.11;47.55;100466.75;10328906;28;1898;-72
2024/03/21 20:04:14;;;;;;;;;;;;;;;19.11;47.39;100451.75;10328077;28;855;-72
2024/03/21 20:09:10;;;;;;;;;;;;;;;19.12;47.43;100445.53;10327818;28;871;-72
2024/03/21 20:14:06;;;;;;;;;;;;;;;19.14;47.44;100440.19;10327603;28;961;-72
2024/03/21 20:19:02;;;;;;;;;;;;;;;19.14;47.46;100446.34;10327934;28;1953;-72
2024/03/21 20:23:58;;;;;;;;;;;;;;;19.14;47.40;100442.84;10328179;28;760;-71
2024/03/21 20:28:54;;;;;;;;;;;;;;;19.14;47.35;100437.56;10327330;28;1680;-72
2024/03/21 20:33:50;;;;;;;;;;;;;;;19.14;47.37;100424.34;10327418;28;867;-72
2024/03/21 20:38:46;;;;;;;;;;;;;;;19.14;47.38;100422.56;10326215;28;2351;-72
2024/03/21 20:43:41;;;;;;;;;;;;;;;19.14;47.43;100403.19;10326633;28;798;-72
2024/03/21 20:48:37;;;;;;;;;;;;;;;19.14;47.40;100400.56;10326319;28;880;-73
2024/03/21 20:53:33;;;;;;;;;;;;;;;19.14;47.44;100403.19;10326713;28;936;-73
2024/03/21 20:58:33;;;;;;;;;;;;;;;19.13;47.31;100398.84;10325175;28;1947;-73
2024/03/21 21:03:29;;;;;;;;;;;;;;;19.12;47.33;100397.97;10325793;28;879;-73
2024/03/21 21:08:25;;;;;;;;;;;;;;;19.12;47.30;100386.53;10325665;28;877;-72
2024/03/21 21:13:21;;;;;;;;;;;;;;;19.10;47.35;100386.63;10326434;28;866;-72
2024/03/21 21:18:17;;;;;;;;;;;;;;;19.10;47.41;100389.25;10326781;28;1967;-73
2024/03/21 21:23:12;;;;;;;;;;;;;;;19.10;47.39;100377.81;10324972;28;822;-72
2024/03/21 21:28:08;;;;;;;;;;;;;;;19.09;47.41;100370.81;10325877;28;1036;-72
2024/03/21 21:33:04;;;;;;;;;;;;;;;19.07;47.20;100368.22;10326111;28;1144;-72
2024/03/21 21:38:00;;;;;;;;;;;;;;;19.07;47.16;100373.50;10325037;28;770;-72
2024/03/21 21:42:56;;;;;;;;;;;;;;;19.07;47.15;100370.00;10324276;28;1894;-72
2024/03/21 21:47:52;;;;;;;;;;;;;;;19.06;47.15;100369.16;10324882;28;996;-72
2024/03/21 21:52:48;;;;;;;;;;;;;;;19.04;47.10;100363.91;10324806;28;770;-72
2024/03/21 21:57:43;;;;;;;;;;;;;;;19.04;47.30;100363.06;10324696;28;950;-72
2024/03/21 22:02:39;;;;;;;;;;;;;;;19.03;47.14;100359.56;10324439;28;1898;-72
2024/03/21 22:07:35;;;;;;;;;;;;;;;19.02;47.43;100356.97;10324477;28;806;-72
2024/03/21 22:12:31;;;;;;;;;;;;;;;19.01;47.26;100361.38;10324379;28;909;-72
2024/03/21 22:17:27;;;;;;;;;;;;;;;18.99;47.39;100362.38;10324516;28;880;-72
2024/03/21 22:22:23;;;;;;;;;;;;;;;18.98;47.24;100366.78;10324144;28;1947;-72
2024/03/21 22:27:19;;;;;;;;;;;;;;;18.96;47.40;100355.41;10324074;28;885;-72
2024/03/21 22:32:15;;;;;;;;;;;;;;;18.94;47.09;100346.72;10324570;28;1428;-72
2024/03/21 22:37:11;;;;;;;;;;;;;;;18.93;47.31;100346.75;10328353;28;770;-72
2024/03/21 22:42:06;;;;;;;;;;;;;;;18.90;47.16;100342.47;10331804;28;1965;-72
2024/03/21 22:47:02;;;;;;;;;;;;;;;18.89;47.25;100334.56;10331057;28;913;-72
2024/03/21 22:51:58;;;;;;;;;;;;;;;18.86;47.11;100324.13;10331477;28;827;-72
2024/03/21 22:56:54;;;;;;;;;;;;;;;18.84;47.15;100318.94;10330652;28;944;-72
2024/03/21 23:01:50;;;;;;;;;;;;;;;18.83;47.02;100314.56;10330365;28;1957;-72
2024/03/21 23:06:46;;;;;;;;;;;;;;;18.80;47.00;100302.31;10330439;28;763;-72
2024/03/21 23:11:42;;;;;;;;;;;;;;;18.78;47.00;100304.16;10331064;28;858;-72
2024/03/21 23:16:37;;;;;;;;;;;;;;;18.76;47.05;100298.09;10330188;28;910;-72
2024/03/21 23:21:33;;;;;;;;;;;;;;;18.75;47.19;100287.59;10330028;28;1969;-72
2024/03/21 23:26:29;;;;;;;;;;;;;;;18.73;47.24;100277.06;10329932;28;810;-72
2024/03/21 23:31:25;;;;;;;;;;;;;;;18.72;47.20;100269.19;10329278;28;1187;-72
2024/03/21 23:36:21;;;;;;;;;;;;;;;18.69;47.16;100259.59;10329673;28;988;-72
2024/03/21 23:41:17;;;;;;;;;;;;;;;18.68;47.24;100268.47;10329932;28;1914;-72